sensor_id;sensor_type;location;lat;lon;timestamp;P1;durP1;ratioP1;P2;durP2;ratioP2
31037;SDS011;17702;47.590;7.666;2022-08-03T00:01:31;20.92;;;14.98;;
31037;SDS011;17702;47.590;7.666;2022-08-03T00:03:57;134.82;;;100.13;;
31037;SDS011;17702;47.590;7.666;2022-08-03T00:06:23;122.22;;;89.43;;
31037;SDS011;17702;47.590;7.666;2022-08-03T00:08:49;46.30;;;34.97;;
31037;SDS011;17702;47.590;7.666;2022-08-03T00:11:15;47.30;;;31.70;;
31037;SDS011;17702;47.590;7.666;2022-08-03T00:13:41;57.78;;;34.65;;
31037;SDS011;17702;47.590;7.666;2022-08-03T00:16:06;122.25;;;75.70;;
31037;SDS011;17702;47.590;7.666;2022-08-03T00:18:32;122.03;;;82.15;;
31037;SDS011;17702;47.590;7.666;2022-08-03T00:20:58;143.70;;;82.47;;
31037;SDS011;17702;47.590;7.666;2022-08-03T00:23:24;342.65;;;202.15;;
31037;SDS011;17702;47.590;7.666;2022-08-03T00:25:49;237.15;;;155.00;;
31037;SDS011;17702;47.590;7.666;2022-08-03T00:28:15;109.65;;;76.82;;
31037;SDS011;17702;47.590;7.666;2022-08-03T00:30:40;117.18;;;87.93;;
31037;SDS011;17702;47.590;7.666;2022-08-03T00:33:06;307.60;;;238.00;;
31037;SDS011;17702;47.590;7.666;2022-08-03T00:35:34;237.25;;;177.05;;
31037;SDS011;17702;47.590;7.666;2022-08-03T00:37:59;461.05;;;371.15;;
31037;SDS011;17702;47.590;7.666;2022-08-03T00:40:25;35.30;;;27.25;;
31037;SDS011;17702;47.590;7.666;2022-08-03T00:42:52;10.77;;;9.13;;
31037;SDS011;17702;47.590;7.666;2022-08-03T00:45:24;139.60;;;97.22;;
31037;SDS011;17702;47.590;7.666;2022-08-03T00:47:52;74.80;;;54.47;;
31037;SDS011;17702;47.590;7.666;2022-08-03T00:50:19;7.93;;;5.57;;
31037;SDS011;17702;47.590;7.666;2022-08-03T00:52:47;4.18;;;3.20;;
31037;SDS011;17702;47.590;7.666;2022-08-03T00:55:13;418.02;;;301.40;;
31037;SDS011;17702;47.590;7.666;2022-08-03T00:57:40;350.55;;;234.88;;
31037;SDS011;17702;47.590;7.666;2022-08-03T01:00:07;18.33;;;11.13;;
31037;SDS011;17702;47.590;7.666;2022-08-03T01:02:34;114.50;;;60.05;;
31037;SDS011;17702;47.590;7.666;2022-08-03T01:05:00;76.32;;;41.47;;
31037;SDS011;17702;47.590;7.666;2022-08-03T01:15:14;238.45;;;167.65;;
31037;SDS011;17702;47.590;7.666;2022-08-03T01:18:05;55.83;;;35.70;;
31037;SDS011;17702;47.590;7.666;2022-08-03T01:20:37;18.63;;;12.40;;
31037;SDS011;17702;47.590;7.666;2022-08-03T01:31:42;56.40;;;42.38;;
31037;SDS011;17702;47.590;7.666;2022-08-03T01:34:13;71.38;;;42.55;;
31037;SDS011;17702;47.590;7.666;2022-08-03T01:36:49;29.02;;;14.70;;
31037;SDS011;17702;47.590;7.666;2022-08-03T01:39:17;2.55;;;1.45;;
31037;SDS011;17702;47.590;7.666;2022-08-03T01:41:48;3.00;;;1.63;;
31037;SDS011;17702;47.590;7.666;2022-08-03T01:44:24;1.83;;;1.52;;
31037;SDS011;17702;47.590;7.666;2022-08-03T01:46:55;3.30;;;2.05;;
31037;SDS011;17702;47.590;7.666;2022-08-03T01:49:23;2.67;;;2.47;;
31037;SDS011;17702;47.590;7.666;2022-08-03T01:51:51;4.15;;;2.50;;
31037;SDS011;17702;47.590;7.666;2022-08-03T01:54:18;2.13;;;2.03;;
31037;SDS011;17702;47.590;7.666;2022-08-03T01:56:44;3.47;;;1.92;;
31037;SDS011;17702;47.590;7.666;2022-08-03T01:59:11;4.40;;;1.83;;
31037;SDS011;17702;47.590;7.666;2022-08-03T02:01:40;3.10;;;1.70;;
31037;SDS011;17702;47.590;7.666;2022-08-03T02:04:08;1.98;;;1.88;;
31037;SDS011;17702;47.590;7.666;2022-08-03T02:06:36;1.95;;;1.85;;
31037;SDS011;17702;47.590;7.666;2022-08-03T02:09:04;3.85;;;1.73;;
31037;SDS011;17702;47.590;7.666;2022-08-03T02:11:31;2.03;;;1.83;;
31037;SDS011;17702;47.590;7.666;2022-08-03T02:14:00;2.17;;;1.80;;
31037;SDS011;17702;47.590;7.666;2022-08-03T02:16:28;5.32;;;1.70;;
31037;SDS011;17702;47.590;7.666;2022-08-03T02:18:55;3.03;;;1.83;;
31037;SDS011;17702;47.590;7.666;2022-08-03T02:21:22;1.80;;;1.70;;
31037;SDS011;17702;47.590;7.666;2022-08-03T02:23:48;2.08;;;1.77;;
31037;SDS011;17702;47.590;7.666;2022-08-03T02:26:14;1.75;;;1.65;;
31037;SDS011;17702;47.590;7.666;2022-08-03T02:28:44;3.20;;;1.73;;
31037;SDS011;17702;47.590;7.666;2022-08-03T02:31:17;3.15;;;1.80;;
31037;SDS011;17702;47.590;7.666;2022-08-03T02:33:48;3.15;;;1.50;;
31037;SDS011;17702;47.590;7.666;2022-08-03T02:36:18;1.67;;;1.58;;
31037;SDS011;17702;47.590;7.666;2022-08-03T02:38:46;2.00;;;1.70;;
31037;SDS011;17702;47.590;7.666;2022-08-03T02:41:16;3.85;;;1.83;;
31037;SDS011;17702;47.590;7.666;2022-08-03T02:43:50;3.03;;;1.83;;
31037;SDS011;17702;47.590;7.666;2022-08-03T02:46:19;3.85;;;1.85;;
31037;SDS011;17702;47.590;7.666;2022-08-03T02:48:48;3.10;;;1.77;;
31037;SDS011;17702;47.590;7.666;2022-08-03T02:51:17;2.53;;;1.73;;
31037;SDS011;17702;47.590;7.666;2022-08-03T02:53:45;3.42;;;1.63;;
31037;SDS011;17702;47.590;7.666;2022-08-03T02:56:12;2.65;;;1.42;;
31037;SDS011;17702;47.590;7.666;2022-08-03T02:58:39;2.92;;;2.03;;
31037;SDS011;17702;47.590;7.666;2022-08-03T03:01:07;2.40;;;1.42;;
31037;SDS011;17702;47.590;7.666;2022-08-03T03:03:34;4.07;;;1.95;;
31037;SDS011;17702;47.590;7.666;2022-08-03T03:06:01;3.50;;;1.92;;
31037;SDS011;17702;47.590;7.666;2022-08-03T03:08:27;2.90;;;2.00;;
31037;SDS011;17702;47.590;7.666;2022-08-03T03:10:54;2.67;;;1.88;;
31037;SDS011;17702;47.590;7.666;2022-08-03T03:13:25;3.63;;;2.25;;
31037;SDS011;17702;47.590;7.666;2022-08-03T03:15:52;3.53;;;2.00;;
31037;SDS011;17702;47.590;7.666;2022-08-03T03:18:20;1.98;;;1.85;;
31037;SDS011;17702;47.590;7.666;2022-08-03T03:20:46;3.58;;;1.80;;
31037;SDS011;17702;47.590;7.666;2022-08-03T03:23:14;2.00;;;1.90;;
31037;SDS011;17702;47.590;7.666;2022-08-03T03:25:41;1.83;;;1.73;;
31037;SDS011;17702;47.590;7.666;2022-08-03T03:28:08;1.92;;;1.83;;
31037;SDS011;17702;47.590;7.666;2022-08-03T03:30:35;1.70;;;1.60;;
31037;SDS011;17702;47.590;7.666;2022-08-03T03:33:01;2.20;;;1.50;;
31037;SDS011;17702;47.590;7.666;2022-08-03T03:35:27;4.82;;;1.90;;
31037;SDS011;17702;47.590;7.666;2022-08-03T03:37:52;3.78;;;1.67;;
31037;SDS011;17702;47.590;7.666;2022-08-03T03:40:18;4.30;;;2.05;;
31037;SDS011;17702;47.590;7.666;2022-08-03T03:42:45;3.25;;;2.20;;
31037;SDS011;17702;47.590;7.666;2022-08-03T03:45:10;2.10;;;1.85;;
31037;SDS011;17702;47.590;7.666;2022-08-03T03:47:37;2.58;;;2.30;;
31037;SDS011;17702;47.590;7.666;2022-08-03T03:50:03;3.10;;;2.17;;
31037;SDS011;17702;47.590;7.666;2022-08-03T03:52:31;2.97;;;2.10;;
31037;SDS011;17702;47.590;7.666;2022-08-03T03:54:57;2.30;;;2.08;;
31037;SDS011;17702;47.590;7.666;2022-08-03T03:57:23;2.42;;;2.22;;
31037;SDS011;17702;47.590;7.666;2022-08-03T03:59:48;3.47;;;2.55;;
31037;SDS011;17702;47.590;7.666;2022-08-03T04:02:14;2.30;;;2.10;;
31037;SDS011;17702;47.590;7.666;2022-08-03T04:04:40;6.28;;;2.30;;
31037;SDS011;17702;47.590;7.666;2022-08-03T04:07:24;2.88;;;2.40;;
31037;SDS011;17702;47.590;7.666;2022-08-03T04:10:17;2.90;;;2.40;;
31037;SDS011;17702;47.590;7.666;2022-08-03T04:13:08;17.10;;;2.85;;
31037;SDS011;17702;47.590;7.666;2022-08-03T04:15:37;25.45;;;3.50;;
31037;SDS011;17702;47.590;7.666;2022-08-03T04:18:05;13.15;;;2.85;;
31037;SDS011;17702;47.590;7.666;2022-08-03T04:20:34;15.32;;;3.10;;
31037;SDS011;17702;47.590;7.666;2022-08-03T04:23:02;3.50;;;2.17;;
31037;SDS011;17702;47.590;7.666;2022-08-03T04:25:32;4.57;;;2.53;;
31037;SDS011;17702;47.590;7.666;2022-08-03T04:27:59;7.90;;;2.78;;
31037;SDS011;17702;47.590;7.666;2022-08-03T04:30:26;3.88;;;2.33;;
31037;SDS011;17702;47.590;7.666;2022-08-03T04:32:56;2.65;;;2.50;;
31037;SDS011;17702;47.590;7.666;2022-08-03T04:35:23;2.30;;;2.20;;
31037;SDS011;17702;47.590;7.666;2022-08-03T04:37:51;2.72;;;2.53;;
31037;SDS011;17702;47.590;7.666;2022-08-03T04:40:19;2.65;;;2.47;;
31037;SDS011;17702;47.590;7.666;2022-08-03T04:42:54;4.43;;;2.55;;
31037;SDS011;17702;47.590;7.666;2022-08-03T04:45:21;2.65;;;2.28;;
31037;SDS011;17702;47.590;7.666;2022-08-03T04:47:48;3.00;;;2.80;;
31037;SDS011;17702;47.590;7.666;2022-08-03T04:50:14;2.58;;;2.47;;
31037;SDS011;17702;47.590;7.666;2022-08-03T04:52:40;4.47;;;3.13;;
31037;SDS011;17702;47.590;7.666;2022-08-03T04:55:06;2.95;;;2.70;;
31037;SDS011;17702;47.590;7.666;2022-08-03T04:57:32;5.57;;;2.67;;
31037;SDS011;17702;47.590;7.666;2022-08-03T04:59:58;2.53;;;2.42;;
31037;SDS011;17702;47.590;7.666;2022-08-03T05:02:24;4.43;;;2.63;;
31037;SDS011;17702;47.590;7.666;2022-08-03T05:04:50;6.00;;;2.53;;
31037;SDS011;17702;47.590;7.666;2022-08-03T05:07:16;8.80;;;3.08;;
31037;SDS011;17702;47.590;7.666;2022-08-03T05:09:42;3.05;;;2.83;;
31037;SDS011;17702;47.590;7.666;2022-08-03T05:12:08;3.05;;;2.83;;
31037;SDS011;17702;47.590;7.666;2022-08-03T05:14:34;3.35;;;3.03;;
31037;SDS011;17702;47.590;7.666;2022-08-03T05:17:03;3.22;;;2.80;;
31037;SDS011;17702;47.590;7.666;2022-08-03T05:19:29;4.38;;;2.85;;
31037;SDS011;17702;47.590;7.666;2022-08-03T05:21:55;3.17;;;2.70;;
31037;SDS011;17702;47.590;7.666;2022-08-03T05:24:21;7.05;;;2.72;;
31037;SDS011;17702;47.590;7.666;2022-08-03T05:26:46;4.43;;;2.97;;
31037;SDS011;17702;47.590;7.666;2022-08-03T05:29:12;4.63;;;2.92;;
31037;SDS011;17702;47.590;7.666;2022-08-03T05:31:38;9.18;;;3.22;;
31037;SDS011;17702;47.590;7.666;2022-08-03T05:34:04;8.98;;;3.20;;
31037;SDS011;17702;47.590;7.666;2022-08-03T05:36:30;6.13;;;3.00;;
31037;SDS011;17702;47.590;7.666;2022-08-03T05:38:55;7.30;;;3.17;;
31037;SDS011;17702;47.590;7.666;2022-08-03T05:41:21;6.60;;;3.20;;
31037;SDS011;17702;47.590;7.666;2022-08-03T05:43:47;3.92;;;3.05;;
31037;SDS011;17702;47.590;7.666;2022-08-03T05:46:13;7.93;;;3.40;;
31037;SDS011;17702;47.590;7.666;2022-08-03T05:48:39;9.68;;;3.25;;
31037;SDS011;17702;47.590;7.666;2022-08-03T05:51:05;10.93;;;3.30;;
31037;SDS011;17702;47.590;7.666;2022-08-03T05:53:35;7.80;;;2.53;;
31037;SDS011;17702;47.590;7.666;2022-08-03T05:56:01;3.45;;;3.15;;
31037;SDS011;17702;47.590;7.666;2022-08-03T05:58:27;3.10;;;2.88;;
31037;SDS011;17702;47.590;7.666;2022-08-03T06:00:53;6.95;;;2.88;;
31037;SDS011;17702;47.590;7.666;2022-08-03T06:03:18;2.90;;;2.70;;
31037;SDS011;17702;47.590;7.666;2022-08-03T06:05:44;3.22;;;2.97;;
31037;SDS011;17702;47.590;7.666;2022-08-03T06:08:10;5.22;;;3.03;;
31037;SDS011;17702;47.590;7.666;2022-08-03T06:10:36;7.10;;;3.28;;
31037;SDS011;17702;47.590;7.666;2022-08-03T06:13:02;2.95;;;2.67;;
31037;SDS011;17702;47.590;7.666;2022-08-03T06:15:27;7.70;;;3.17;;
31037;SDS011;17702;47.590;7.666;2022-08-03T06:17:54;6.03;;;2.90;;
31037;SDS011;17702;47.590;7.666;2022-08-03T06:20:22;4.82;;;3.08;;
31037;SDS011;17702;47.590;7.666;2022-08-03T06:22:47;5.65;;;2.70;;
31037;SDS011;17702;47.590;7.666;2022-08-03T06:25:13;11.13;;;3.35;;
31037;SDS011;17702;47.590;7.666;2022-08-03T06:27:40;6.18;;;2.45;;
31037;SDS011;17702;47.590;7.666;2022-08-03T06:30:06;4.70;;;2.45;;
31037;SDS011;17702;47.590;7.666;2022-08-03T06:32:34;3.70;;;2.85;;
31037;SDS011;17702;47.590;7.666;2022-08-03T06:35:07;2.97;;;2.50;;
31037;SDS011;17702;47.590;7.666;2022-08-03T06:37:44;3.08;;;2.75;;
31037;SDS011;17702;47.590;7.666;2022-08-03T06:40:16;5.45;;;2.75;;
31037;SDS011;17702;47.590;7.666;2022-08-03T06:42:42;2.55;;;2.35;;
31037;SDS011;17702;47.590;7.666;2022-08-03T06:45:09;4.47;;;2.45;;
31037;SDS011;17702;47.590;7.666;2022-08-03T06:47:35;4.50;;;2.20;;
31037;SDS011;17702;47.590;7.666;2022-08-03T06:50:02;2.58;;;2.40;;
31037;SDS011;17702;47.590;7.666;2022-08-03T06:52:28;2.35;;;2.15;;
31037;SDS011;17702;47.590;7.666;2022-08-03T06:54:54;2.53;;;2.20;;
31037;SDS011;17702;47.590;7.666;2022-08-03T06:57:20;3.13;;;2.83;;
31037;SDS011;17702;47.590;7.666;2022-08-03T06:59:46;6.90;;;3.10;;
31037;SDS011;17702;47.590;7.666;2022-08-03T07:02:11;3.20;;;2.78;;
31037;SDS011;17702;47.590;7.666;2022-08-03T07:04:37;3.40;;;2.33;;
31037;SDS011;17702;47.590;7.666;2022-08-03T07:07:03;5.72;;;2.80;;
31037;SDS011;17702;47.590;7.666;2022-08-03T07:09:28;3.00;;;2.80;;
31037;SDS011;17702;47.590;7.666;2022-08-03T07:11:54;2.55;;;2.30;;
31037;SDS011;17702;47.590;7.666;2022-08-03T07:14:21;3.15;;;2.28;;
31037;SDS011;17702;47.590;7.666;2022-08-03T07:16:46;2.33;;;2.20;;
31037;SDS011;17702;47.590;7.666;2022-08-03T07:19:12;2.78;;;2.00;;
31037;SDS011;17702;47.590;7.666;2022-08-03T07:21:38;2.08;;;1.80;;
31037;SDS011;17702;47.590;7.666;2022-08-03T07:24:03;3.22;;;2.05;;
31037;SDS011;17702;47.590;7.666;2022-08-03T07:26:29;2.40;;;2.20;;
31037;SDS011;17702;47.590;7.666;2022-08-03T07:28:55;2.58;;;2.08;;
31037;SDS011;17702;47.590;7.666;2022-08-03T07:31:21;3.33;;;2.30;;
31037;SDS011;17702;47.590;7.666;2022-08-03T07:33:46;4.13;;;2.10;;
31037;SDS011;17702;47.590;7.666;2022-08-03T07:36:12;2.22;;;2.00;;
31037;SDS011;17702;47.590;7.666;2022-08-03T07:38:37;2.45;;;2.25;;
31037;SDS011;17702;47.590;7.666;2022-08-03T07:41:03;4.03;;;2.30;;
31037;SDS011;17702;47.590;7.666;2022-08-03T07:43:29;3.15;;;2.05;;
31037;SDS011;17702;47.590;7.666;2022-08-03T07:45:54;2.40;;;2.20;;
31037;SDS011;17702;47.590;7.666;2022-08-03T07:48:20;3.35;;;2.33;;
31037;SDS011;17702;47.590;7.666;2022-08-03T07:50:45;2.60;;;2.13;;
31037;SDS011;17702;47.590;7.666;2022-08-03T07:53:11;2.00;;;1.90;;
31037;SDS011;17702;47.590;7.666;2022-08-03T07:55:37;2.53;;;2.20;;
31037;SDS011;17702;47.590;7.666;2022-08-03T07:58:03;2.33;;;2.22;;
31037;SDS011;17702;47.590;7.666;2022-08-03T08:00:36;3.47;;;2.10;;
31037;SDS011;17702;47.590;7.666;2022-08-03T08:03:02;3.20;;;2.15;;
31037;SDS011;17702;47.590;7.666;2022-08-03T08:05:28;1.90;;;1.80;;
31037;SDS011;17702;47.590;7.666;2022-08-03T08:07:54;2.33;;;2.08;;
31037;SDS011;17702;47.590;7.666;2022-08-03T08:10:20;2.15;;;1.95;;
31037;SDS011;17702;47.590;7.666;2022-08-03T08:12:46;3.95;;;1.90;;
31037;SDS011;17702;47.590;7.666;2022-08-03T08:15:12;3.05;;;2.20;;
31037;SDS011;17702;47.590;7.666;2022-08-03T08:17:45;2.55;;;2.35;;
31037;SDS011;17702;47.590;7.666;2022-08-03T08:20:19;2.72;;;2.30;;
31037;SDS011;17702;47.590;7.666;2022-08-03T08:22:46;1.80;;;1.70;;
31037;SDS011;17702;47.590;7.666;2022-08-03T08:25:12;2.10;;;2.00;;
31037;SDS011;17702;47.590;7.666;2022-08-03T08:27:45;2.75;;;1.80;;
31037;SDS011;17702;47.590;7.666;2022-08-03T08:30:13;8.57;;;2.45;;
31037;SDS011;17702;47.590;7.666;2022-08-03T08:32:40;2.28;;;2.00;;
31037;SDS011;17702;47.590;7.666;2022-08-03T08:35:06;4.35;;;2.10;;
31037;SDS011;17702;47.590;7.666;2022-08-03T08:37:33;3.30;;;2.10;;
31037;SDS011;17702;47.590;7.666;2022-08-03T08:39:58;2.13;;;1.95;;
31037;SDS011;17702;47.590;7.666;2022-08-03T08:42:24;2.50;;;2.30;;
31037;SDS011;17702;47.590;7.666;2022-08-03T08:44:50;3.95;;;1.70;;
31037;SDS011;17702;47.590;7.666;2022-08-03T08:47:17;1.80;;;1.70;;
31037;SDS011;17702;47.590;7.666;2022-08-03T08:49:43;2.03;;;1.73;;
31037;SDS011;17702;47.590;7.666;2022-08-03T08:52:10;1.85;;;1.75;;
31037;SDS011;17702;47.590;7.666;2022-08-03T08:54:39;1.98;;;1.88;;
31037;SDS011;17702;47.590;7.666;2022-08-03T08:57:08;6.85;;;1.90;;
31037;SDS011;17702;47.590;7.666;2022-08-03T08:59:35;2.38;;;1.90;;
31037;SDS011;17702;47.590;7.666;2022-08-03T09:02:01;1.83;;;1.73;;
31037;SDS011;17702;47.590;7.666;2022-08-03T09:04:28;2.80;;;1.95;;
31037;SDS011;17702;47.590;7.666;2022-08-03T09:06:54;2.55;;;1.80;;
31037;SDS011;17702;47.590;7.666;2022-08-03T09:09:20;3.35;;;1.95;;
31037;SDS011;17702;47.590;7.666;2022-08-03T09:11:47;2.47;;;2.28;;
31037;SDS011;17702;47.590;7.666;2022-08-03T09:14:13;4.20;;;1.70;;
31037;SDS011;17702;47.590;7.666;2022-08-03T09:16:54;3.78;;;2.00;;
31037;SDS011;17702;47.590;7.666;2022-08-03T09:19:23;1.83;;;1.73;;
31037;SDS011;17702;47.590;7.666;2022-08-03T09:22:05;1.80;;;1.70;;
31037;SDS011;17702;47.590;7.666;2022-08-03T09:24:34;1.67;;;1.58;;
31037;SDS011;17702;47.590;7.666;2022-08-03T09:27:03;2.40;;;1.40;;
31037;SDS011;17702;47.590;7.666;2022-08-03T09:29:31;1.63;;;1.52;;
31037;SDS011;17702;47.590;7.666;2022-08-03T09:32:02;1.30;;;1.30;;
31037;SDS011;17702;47.590;7.666;2022-08-03T09:34:28;1.23;;;1.17;;
31037;SDS011;17702;47.590;7.666;2022-08-03T09:36:54;2.58;;;1.48;;
31037;SDS011;17702;47.590;7.666;2022-08-03T09:39:23;1.15;;;1.00;;
31037;SDS011;17702;47.590;7.666;2022-08-03T09:42:07;2.47;;;1.05;;
31037;SDS011;17702;47.590;7.666;2022-08-03T09:44:34;1.50;;;1.30;;
31037;SDS011;17702;47.590;7.666;2022-08-03T09:47:02;2.47;;;1.33;;
31037;SDS011;17702;47.590;7.666;2022-08-03T09:49:28;2.05;;;1.30;;
31037;SDS011;17702;47.590;7.666;2022-08-03T09:51:53;1.52;;;1.10;;
31037;SDS011;17702;47.590;7.666;2022-08-03T09:54:29;2.03;;;1.30;;
31037;SDS011;17702;47.590;7.666;2022-08-03T09:56:56;2.28;;;1.42;;
31037;SDS011;17702;47.590;7.666;2022-08-03T09:59:27;2.92;;;1.30;;
31037;SDS011;17702;47.590;7.666;2022-08-03T10:01:54;1.67;;;1.30;;
31037;SDS011;17702;47.590;7.666;2022-08-03T10:04:21;2.00;;;1.60;;
31037;SDS011;17702;47.590;7.666;2022-08-03T10:09:33;8.45;;;2.83;;
31037;SDS011;17702;47.590;7.666;2022-08-03T10:12:12;1.63;;;1.52;;
31037;SDS011;17702;47.590;7.666;2022-08-03T10:14:38;2.13;;;1.85;;
31037;SDS011;17702;47.590;7.666;2022-08-03T10:17:06;1.52;;;1.42;;
31037;SDS011;17702;47.590;7.666;2022-08-03T10:19:32;2.40;;;1.48;;
31037;SDS011;17702;47.590;7.666;2022-08-03T10:22:00;1.40;;;1.30;;
31037;SDS011;17702;47.590;7.666;2022-08-03T10:24:58;1.73;;;1.33;;
31037;SDS011;17702;47.590;7.666;2022-08-03T10:27:32;2.85;;;1.63;;
31037;SDS011;17702;47.590;7.666;2022-08-03T10:30:04;1.58;;;1.48;;
31037;SDS011;17702;47.590;7.666;2022-08-03T10:35:21;1.70;;;1.60;;
31037;SDS011;17702;47.590;7.666;2022-08-03T10:40:26;2.10;;;1.90;;
31037;SDS011;17702;47.590;7.666;2022-08-03T10:42:54;1.40;;;1.30;;
31037;SDS011;17702;47.590;7.666;2022-08-03T10:45:25;2.03;;;1.60;;
31037;SDS011;17702;47.590;7.666;2022-08-03T10:47:51;4.03;;;1.80;;
31037;SDS011;17702;47.590;7.666;2022-08-03T10:50:19;1.90;;;1.80;;
31037;SDS011;17702;47.590;7.666;2022-08-03T10:55:30;2.80;;;1.88;;
31037;SDS011;17702;47.590;7.666;2022-08-03T10:58:15;1.73;;;1.63;;
31037;SDS011;17702;47.590;7.666;2022-08-03T11:01:13;1.75;;;1.33;;
31037;SDS011;17702;47.590;7.666;2022-08-03T11:06:18;2.45;;;1.50;;
31037;SDS011;17702;47.590;7.666;2022-08-03T11:08:45;1.75;;;1.30;;
31037;SDS011;17702;47.590;7.666;2022-08-03T11:13:43;1.30;;;1.20;;
31037;SDS011;17702;47.590;7.666;2022-08-03T11:16:20;0.93;;;0.93;;
31037;SDS011;17702;47.590;7.666;2022-08-03T11:19:00;0.95;;;0.88;;
31037;SDS011;17702;47.590;7.666;2022-08-03T11:29:55;3.25;;;1.20;;
31037;SDS011;17702;47.590;7.666;2022-08-03T11:35:15;1.20;;;1.10;;
31037;SDS011;17702;47.590;7.666;2022-08-03T11:48:21;0.95;;;0.90;;
31037;SDS011;17702;47.590;7.666;2022-08-03T11:50:47;1.10;;;1.00;;
31037;SDS011;17702;47.590;7.666;2022-08-03T11:53:15;0.77;;;0.77;;
31037;SDS011;17702;47.590;7.666;2022-08-03T11:55:42;2.20;;;0.85;;
31037;SDS011;17702;47.590;7.666;2022-08-03T11:58:16;0.80;;;0.80;;
31037;SDS011;17702;47.590;7.666;2022-08-03T12:03:31;2.85;;;0.80;;
31037;SDS011;17702;47.590;7.666;2022-08-03T12:05:57;0.77;;;0.77;;
31037;SDS011;17702;47.590;7.666;2022-08-03T12:10:51;1.45;;;1.02;;
31037;SDS011;17702;47.590;7.666;2022-08-03T12:13:18;0.75;;;0.75;;
31037;SDS011;17702;47.590;7.666;2022-08-03T12:15:49;2.80;;;0.60;;
31037;SDS011;17702;47.590;7.666;2022-08-03T12:18:20;1.92;;;0.80;;
31037;SDS011;17702;47.590;7.666;2022-08-03T12:20:47;1.38;;;0.70;;
31037;SDS011;17702;47.590;7.666;2022-08-03T12:23:15;2.67;;;0.65;;
31037;SDS011;17702;47.590;7.666;2022-08-03T12:25:41;1.02;;;0.93;;
31037;SDS011;17702;47.590;7.666;2022-08-03T12:30:44;0.47;;;0.47;;
31037;SDS011;17702;47.590;7.666;2022-08-03T12:33:22;2.30;;;0.70;;
31037;SDS011;17702;47.590;7.666;2022-08-03T12:36:10;1.40;;;0.57;;
31037;SDS011;17702;47.590;7.666;2022-08-03T12:38:36;2.53;;;0.80;;
31037;SDS011;17702;47.590;7.666;2022-08-03T12:41:04;0.80;;;0.70;;
31037;SDS011;17702;47.590;7.666;2022-08-03T12:43:32;1.30;;;0.75;;
31037;SDS011;17702;47.590;7.666;2022-08-03T12:48:34;0.88;;;0.88;;
31037;SDS011;17702;47.590;7.666;2022-08-03T12:51:07;1.65;;;0.85;;
31037;SDS011;17702;47.590;7.666;2022-08-03T12:53:36;0.88;;;0.80;;
31037;SDS011;17702;47.590;7.666;2022-08-03T12:56:02;5.50;;;1.27;;
31037;SDS011;17702;47.590;7.666;2022-08-03T12:58:30;0.60;;;0.60;;
31037;SDS011;17702;47.590;7.666;2022-08-03T13:00:57;1.00;;;0.77;;
31037;SDS011;17702;47.590;7.666;2022-08-03T13:03:23;1.52;;;0.57;;
31037;SDS011;17702;47.590;7.666;2022-08-03T13:05:49;3.00;;;0.90;;
31037;SDS011;17702;47.590;7.666;2022-08-03T13:08:18;1.00;;;0.93;;
31037;SDS011;17702;47.590;7.666;2022-08-03T13:10:45;1.65;;;0.77;;
31037;SDS011;17702;47.590;7.666;2022-08-03T13:13:11;1.40;;;1.00;;
31037;SDS011;17702;47.590;7.666;2022-08-03T13:15:37;1.10;;;1.00;;
31037;SDS011;17702;47.590;7.666;2022-08-03T13:18:02;2.80;;;1.08;;
31037;SDS011;17702;47.590;7.666;2022-08-03T13:20:28;2.75;;;0.98;;
31037;SDS011;17702;47.590;7.666;2022-08-03T13:22:54;1.40;;;1.20;;
31037;SDS011;17702;47.590;7.666;2022-08-03T13:25:20;1.15;;;1.02;;
31037;SDS011;17702;47.590;7.666;2022-08-03T13:27:47;3.50;;;1.25;;
31037;SDS011;17702;47.590;7.666;2022-08-03T13:30:13;1.13;;;1.10;;
31037;SDS011;17702;47.590;7.666;2022-08-03T13:32:40;1.23;;;1.10;;
31037;SDS011;17702;47.590;7.666;2022-08-03T13:35:06;2.35;;;1.20;;
31037;SDS011;17702;47.590;7.666;2022-08-03T13:37:33;3.17;;;1.40;;
31037;SDS011;17702;47.590;7.666;2022-08-03T13:39:59;2.65;;;1.10;;
31037;SDS011;17702;47.590;7.666;2022-08-03T13:42:26;2.50;;;1.13;;
31037;SDS011;17702;47.590;7.666;2022-08-03T13:44:52;0.90;;;0.90;;
31037;SDS011;17702;47.590;7.666;2022-08-03T13:47:19;2.15;;;1.10;;
31037;SDS011;17702;47.590;7.666;2022-08-03T13:49:44;2.22;;;1.10;;
31037;SDS011;17702;47.590;7.666;2022-08-03T13:52:10;1.63;;;1.10;;
31037;SDS011;17702;47.590;7.666;2022-08-03T13:54:36;1.23;;;1.15;;
31037;SDS011;17702;47.590;7.666;2022-08-03T13:57:01;1.35;;;1.25;;
31037;SDS011;17702;47.590;7.666;2022-08-03T13:59:27;4.18;;;1.25;;
31037;SDS011;17702;47.590;7.666;2022-08-03T14:01:53;5.55;;;1.10;;
31037;SDS011;17702;47.590;7.666;2022-08-03T14:04:18;1.40;;;1.30;;
31037;SDS011;17702;47.590;7.666;2022-08-03T14:06:45;0.90;;;0.90;;
31037;SDS011;17702;47.590;7.666;2022-08-03T14:09:11;1.25;;;1.20;;
31037;SDS011;17702;47.590;7.666;2022-08-03T14:11:37;2.25;;;1.02;;
31037;SDS011;17702;47.590;7.666;2022-08-03T14:14:06;0.90;;;0.90;;
31037;SDS011;17702;47.590;7.666;2022-08-03T14:16:32;1.52;;;1.38;;
31037;SDS011;17702;47.590;7.666;2022-08-03T14:18:57;3.17;;;1.20;;
31037;SDS011;17702;47.590;7.666;2022-08-03T14:21:23;4.05;;;1.30;;
31037;SDS011;17702;47.590;7.666;2022-08-03T14:23:49;7.03;;;1.83;;
31037;SDS011;17702;47.590;7.666;2022-08-03T14:26:14;1.50;;;1.05;;
31037;SDS011;17702;47.590;7.666;2022-08-03T14:28:42;1.20;;;1.10;;
31037;SDS011;17702;47.590;7.666;2022-08-03T14:31:08;1.65;;;1.20;;
31037;SDS011;17702;47.590;7.666;2022-08-03T14:33:33;1.88;;;1.08;;
31037;SDS011;17702;47.590;7.666;2022-08-03T14:35:59;1.40;;;1.15;;
31037;SDS011;17702;47.590;7.666;2022-08-03T14:38:24;2.17;;;1.33;;
31037;SDS011;17702;47.590;7.666;2022-08-03T14:40:50;2.97;;;1.50;;
31037;SDS011;17702;47.590;7.666;2022-08-03T14:43:17;3.75;;;1.27;;
31037;SDS011;17702;47.590;7.666;2022-08-03T14:45:44;1.20;;;1.10;;
31037;SDS011;17702;47.590;7.666;2022-08-03T14:48:09;3.35;;;1.40;;
31037;SDS011;17702;47.590;7.666;2022-08-03T14:50:36;2.53;;;1.13;;
31037;SDS011;17702;47.590;7.666;2022-08-03T14:53:02;3.55;;;1.02;;
31037;SDS011;17702;47.590;7.666;2022-08-03T14:55:27;2.33;;;1.58;;
31037;SDS011;17702;47.590;7.666;2022-08-03T14:57:53;1.45;;;1.30;;
31037;SDS011;17702;47.590;7.666;2022-08-03T15:00:18;2.70;;;1.60;;
31037;SDS011;17702;47.590;7.666;2022-08-03T15:02:44;1.73;;;1.55;;
31037;SDS011;17702;47.590;7.666;2022-08-03T15:05:09;2.00;;;1.30;;
31037;SDS011;17702;47.590;7.666;2022-08-03T15:07:36;3.85;;;1.40;;
31037;SDS011;17702;47.590;7.666;2022-08-03T15:10:02;2.65;;;1.45;;
31037;SDS011;17702;47.590;7.666;2022-08-03T15:12:28;1.90;;;1.65;;
31037;SDS011;17702;47.590;7.666;2022-08-03T15:14:54;2.17;;;1.20;;
31037;SDS011;17702;47.590;7.666;2022-08-03T15:17:20;1.83;;;1.38;;
31037;SDS011;17702;47.590;7.666;2022-08-03T15:19:46;1.58;;;1.23;;
31037;SDS011;17702;47.590;7.666;2022-08-03T15:22:11;1.50;;;1.40;;
31037;SDS011;17702;47.590;7.666;2022-08-03T15:24:39;1.58;;;1.48;;
31037;SDS011;17702;47.590;7.666;2022-08-03T15:27:05;3.38;;;1.35;;
31037;SDS011;17702;47.590;7.666;2022-08-03T15:29:31;2.92;;;1.42;;
31037;SDS011;17702;47.590;7.666;2022-08-03T15:31:56;1.77;;;1.67;;
31037;SDS011;17702;47.590;7.666;2022-08-03T15:34:22;1.70;;;1.60;;
31037;SDS011;17702;47.590;7.666;2022-08-03T15:36:48;1.23;;;1.17;;
31037;SDS011;17702;47.590;7.666;2022-08-03T15:39:13;2.88;;;1.70;;
31037;SDS011;17702;47.590;7.666;2022-08-03T15:41:39;1.52;;;1.40;;
31037;SDS011;17702;47.590;7.666;2022-08-03T15:44:05;2.88;;;1.70;;
31037;SDS011;17702;47.590;7.666;2022-08-03T15:46:30;2.22;;;1.55;;
31037;SDS011;17702;47.590;7.666;2022-08-03T15:48:56;1.58;;;1.42;;
31037;SDS011;17702;47.590;7.666;2022-08-03T15:51:22;3.08;;;1.63;;